createdAt,value
2018-04-13T00:01:06.625Z,17.27
2018-04-13T00:02:16.594Z,17.27
2018-04-13T00:03:26.574Z,17.24
2018-04-13T00:04:36.543Z,17.24
2018-04-13T00:05:46.513Z,17.24
2018-04-13T00:06:55.961Z,17.28
2018-04-13T00:08:05.681Z,17.24
2018-04-13T00:09:15.646Z,17.3
2018-04-13T00:10:25.112Z,17.24
2018-04-13T00:11:35.091Z,17.31
2018-04-13T00:12:45.079Z,17.31
2018-04-13T00:13:55.091Z,17.34
2018-04-13T00:15:04.811Z,17.3
2018-04-13T00:16:14.776Z,17.32
2018-04-13T00:17:24.229Z,17.32
2018-04-13T00:18:34.200Z,17.3
2018-04-13T00:19:44.182Z,17.23
2018-04-13T00:20:54.162Z,17.24
2018-04-13T00:22:04.143Z,17.31
2018-04-13T00:23:14.118Z,17.27
2018-04-13T00:24:24.082Z,17.28
2018-04-13T00:25:33.789Z,17.23
2018-04-13T00:26:43.515Z,17.22
2018-04-13T00:27:53.485Z,17.22
2018-04-13T00:29:03.211Z,17.2
2018-04-13T00:30:13.197Z,17.2
2018-04-13T00:31:23.168Z,17.2
2018-04-13T00:32:33.140Z,17.2
2018-04-13T00:33:43.110Z,17.17
2018-04-13T00:34:53.082Z,17.19
2018-04-13T00:36:03.047Z,17.2
2018-04-13T00:37:13.239Z,17.22
2018-04-13T00:38:23.226Z,17.1
2018-04-13T00:39:33.200Z,17.07
2018-04-13T00:40:42.684Z,17.09
2018-04-13T00:41:52.689Z,17.1
2018-04-13T00:43:02.664Z,17.16
2018-04-13T00:44:12.382Z,17.12
2018-04-13T00:45:22.357Z,17.13
2018-04-13T00:46:32.339Z,17.17
2018-04-13T00:47:42.050Z,17.12
2018-04-13T00:48:51.755Z,17.14
2018-04-13T00:50:01.486Z,17.1
2018-04-13T00:51:11.463Z,17.07
2018-04-13T00:52:20.918Z,16.99
2018-04-13T00:53:30.881Z,17.13
2018-04-13T00:54:40.586Z,17.1
2018-04-13T00:55:50.553Z,17.13
2018-04-13T00:57:00.259Z,17.07
2018-04-13T00:58:10.230Z,17.04
2018-04-13T00:59:19.924Z,16.99
2018-04-13T01:00:29.646Z,17.04
2018-04-13T01:01:39.637Z,16.99
2018-04-13T01:02:49.606Z,17.02
2018-04-13T01:03:59.570Z,16.95
2018-04-13T01:05:09.297Z,16.92
2018-04-13T01:06:19.265Z,16.97
2018-04-13T01:07:28.981Z,16.98
2018-04-13T01:08:38.963Z,16.97
2018-04-13T01:09:48.983Z,16.99
2018-04-13T01:10:58.956Z,16.99
2018-04-13T01:12:08.448Z,16.98
2018-04-13T01:13:18.157Z,16.97
2018-04-13T01:14:27.899Z,16.97
2018-04-13T01:15:37.858Z,16.95
2018-04-13T01:16:47.826Z,16.92
2018-04-13T01:17:57.786Z,16.99
2018-04-13T01:19:07.752Z,16.98
2018-04-13T01:20:17.721Z,16.97
2018-04-13T01:21:27.685Z,16.97
2018-04-13T01:22:37.666Z,16.94
2018-04-13T01:23:47.633Z,16.98
2018-04-13T01:24:57.606Z,16.92
2018-04-13T01:26:07.566Z,16.84
2018-04-13T01:27:17.530Z,16.82
2018-04-13T01:28:27.755Z,16.84
2018-04-13T01:29:37.737Z,16.82
2018-04-13T01:30:47.709Z,16.84
2018-04-13T01:31:57.666Z,16.89
2018-04-13T01:33:07.628Z,16.86
2018-04-13T01:34:17.595Z,16.94
2018-04-13T01:35:27.821Z,16.8
2018-04-13T01:36:37.785Z,16.87
2018-04-13T01:37:47.764Z,16.84
2018-04-13T01:38:57.729Z,16.89
2018-04-13T01:40:07.435Z,16.86
2018-04-13T01:41:17.145Z,16.84
2018-04-13T01:42:27.163Z,16.86
2018-04-13T01:43:37.131Z,16.83
2018-04-13T01:44:46.855Z,16.92
2018-04-13T01:45:56.576Z,16.86
2018-04-13T01:47:06.542Z,16.83
2018-04-13T01:48:16.498Z,16.87
2018-04-13T01:49:25.949Z,16.87
2018-04-13T01:50:35.944Z,16.87
2018-04-13T01:51:45.903Z,16.87
2018-04-13T01:52:55.868Z,16.84
2018-04-13T01:54:05.588Z,16.86
2018-04-13T01:55:15.558Z,16.84
2018-04-13T01:56:25.539Z,16.87
2018-04-13T01:57:35.502Z,16.86
2018-04-13T01:58:44.954Z,16.92
2018-04-13T01:59:54.912Z,16.86
2018-04-13T02:01:04.889Z,16.84
2018-04-13T02:02:14.856Z,16.92
2018-04-13T02:03:24.832Z,16.87
2018-04-13T02:04:34.808Z,16.86
2018-04-13T02:05:44.775Z,16.84
2018-04-13T02:06:54.490Z,16.82
2018-04-13T02:08:04.455Z,16.92
2018-04-13T02:09:14.163Z,16.87
2018-04-13T02:10:24.120Z,16.89
2018-04-13T02:11:33.827Z,16.86
2018-04-13T02:12:43.818Z,16.83
2018-04-13T02:13:53.793Z,16.87
2018-04-13T02:15:03.504Z,16.79
2018-04-13T02:16:13.217Z,16.83
2018-04-13T02:17:22.935Z,16.82
2018-04-13T02:18:32.898Z,16.8
2018-04-13T02:19:42.863Z,16.82
2018-04-13T02:20:52.827Z,16.74
2018-04-13T02:22:02.838Z,16.76
2018-04-13T02:23:12.810Z,16.76
2018-04-13T02:24:22.779Z,16.69
2018-04-13T02:25:32.744Z,16.69
2018-04-13T02:26:42.199Z,16.73
2018-04-13T02:27:52.192Z,16.66
2018-04-13T02:29:01.900Z,16.72
2018-04-13T02:30:11.876Z,16.73
2018-04-13T02:31:21.592Z,16.8
2018-04-13T02:32:31.715Z,16.74
2018-04-13T02:33:41.701Z,16.73
2018-04-13T02:34:51.701Z,16.68
2018-04-13T02:36:01.701Z,16.8
2018-04-13T02:37:11.422Z,16.73
2018-04-13T02:38:21.403Z,16.73
2018-04-13T02:39:31.372Z,16.69
2018-04-13T02:40:41.332Z,16.8
2018-04-13T02:41:51.313Z,16.73
2018-04-13T02:43:01.276Z,16.73
2018-04-13T02:44:10.985Z,16.69
2018-04-13T02:45:20.722Z,16.73
2018-04-13T02:46:30.698Z,16.74
2018-04-13T02:47:40.412Z,16.74
2018-04-13T02:48:50.377Z,16.76
2018-04-13T02:50:00.350Z,16.74
2018-04-13T02:51:10.333Z,16.76
2018-04-13T02:52:20.310Z,16.74
2018-04-13T02:53:30.291Z,16.79
2018-04-13T02:54:40.280Z,16.77
2018-04-13T02:55:50.260Z,16.73
2018-04-13T02:57:00.238Z,16.83
2018-04-13T02:58:09.938Z,16.73
2018-04-13T02:59:19.938Z,16.74
2018-04-13T03:00:29.654Z,16.83
2018-04-13T03:01:39.364Z,16.72
2018-04-13T03:02:49.358Z,16.76
2018-04-13T03:03:59.071Z,16.73
2018-04-13T03:05:09.053Z,16.76
2018-04-13T03:06:19.047Z,16.76
2018-04-13T03:07:28.798Z,16.72
2018-04-13T03:08:38.888Z,16.69
2018-04-13T03:09:48.861Z,16.73
2018-04-13T03:10:58.838Z,16.72
2018-04-13T03:12:08.560Z,16.73
2018-04-13T03:13:18.254Z,16.69
2018-04-13T03:14:28.229Z,16.62
2018-04-13T03:15:38.199Z,16.74
2018-04-13T03:16:48.157Z,16.65
2018-04-13T03:17:58.127Z,16.65
2018-04-13T03:19:08.121Z,16.68
2018-04-13T03:20:18.086Z,16.74
2018-04-13T03:21:28.065Z,16.69
2018-04-13T03:22:38.030Z,16.69
2018-04-13T03:23:47.751Z,16.72
2018-04-13T03:24:57.461Z,16.69
2018-04-13T03:26:07.169Z,16.66
2018-04-13T03:27:16.617Z,16.64
2018-04-13T03:28:26.321Z,16.72
2018-04-13T03:29:35.516Z,16.64
2018-04-13T03:30:45.234Z,16.68
2018-04-13T03:31:54.434Z,16.72
2018-04-13T03:33:04.141Z,16.72
2018-04-13T03:34:14.109Z,16.73
2018-04-13T03:35:23.808Z,16.76
2018-04-13T03:36:33.004Z,16.68
2018-04-13T03:37:42.973Z,16.72
2018-04-13T03:38:52.674Z,16.69
2018-04-13T03:40:02.634Z,16.74
2018-04-13T03:41:12.604Z,16.79
2018-04-13T03:42:22.571Z,16.83
2018-04-13T03:43:32.549Z,16.86
2018-04-13T03:44:42.260Z,16.8
2018-04-13T03:45:52.243Z,16.82
2018-04-13T03:47:02.209Z,16.86
2018-04-13T03:48:12.242Z,16.87
2018-04-13T03:49:22.228Z,16.84
2018-04-13T03:50:32.210Z,16.84
2018-04-13T03:51:42.187Z,16.83
2018-04-13T03:52:52.151Z,16.86
2018-04-13T03:54:01.862Z,16.83
2018-04-13T03:55:11.823Z,16.84
2018-04-13T03:56:21.536Z,16.89
2018-04-13T03:57:31.505Z,16.91
2018-04-13T03:58:41.469Z,16.95
2018-04-13T03:59:51.200Z,16.86
2018-04-13T04:01:01.165Z,16.86
2018-04-13T04:02:11.242Z,16.86
2018-04-13T04:03:21.029Z,16.91
2018-04-13T04:04:30.989Z,16.86
2018-04-13T04:05:40.965Z,16.97
2018-04-13T04:06:50.940Z,16.91
2018-04-13T04:08:00.403Z,16.92
2018-04-13T04:09:10.111Z,16.92
2018-04-13T04:10:19.836Z,16.91
2018-04-13T04:11:29.547Z,17.04
2018-04-13T04:12:39.266Z,16.95
2018-04-13T04:13:48.978Z,16.92
2018-04-13T04:14:58.461Z,16.98
2018-04-13T04:16:08.192Z,17.02
2018-04-13T04:17:18.163Z,16.95
2018-04-13T04:18:27.631Z,16.92
2018-04-13T04:19:37.607Z,16.95
2018-04-13T04:20:47.563Z,17.02
2018-04-13T04:21:57.269Z,17.04
2018-04-13T04:23:07.246Z,16.95
2018-04-13T04:24:17.367Z,16.97
2018-04-13T04:25:27.338Z,16.99
2018-04-13T04:26:36.811Z,16.98
2018-04-13T04:27:46.800Z,16.97
2018-04-13T04:28:56.524Z,16.95
2018-04-13T04:30:06.515Z,16.97
2018-04-13T04:31:16.479Z,17.01
2018-04-13T04:32:26.453Z,16.97
2018-04-13T04:33:36.483Z,16.95
2018-04-13T04:34:46.468Z,16.94
2018-04-13T04:35:56.464Z,16.97
2018-04-13T04:37:06.182Z,16.94
2018-04-13T04:38:16.158Z,16.95
2018-04-13T04:39:26.124Z,16.95
2018-04-13T04:40:36.091Z,16.97
2018-04-13T04:41:45.790Z,16.97
2018-04-13T04:42:55.756Z,16.91
2018-04-13T04:44:05.493Z,17.01
2018-04-13T04:45:15.456Z,16.94
2018-04-13T04:46:24.904Z,16.95
2018-04-13T04:47:34.630Z,16.92
2018-04-13T04:48:44.600Z,16.92
2018-04-13T04:49:54.321Z,16.99
2018-04-13T04:51:04.294Z,16.86
2018-04-13T04:52:14.004Z,16.84
2018-04-13T04:53:24.000Z,16.89
2018-04-13T04:54:33.980Z,16.89
2018-04-13T04:55:43.936Z,16.89
2018-04-13T04:56:53.907Z,16.87
2018-04-13T04:58:03.628Z,16.89
2018-04-13T04:59:13.618Z,16.84
2018-04-13T05:00:23.331Z,16.87
2018-04-13T05:01:33.293Z,16.83
2018-04-13T05:02:43.269Z,16.83
2018-04-13T05:03:52.974Z,16.86
2018-04-13T05:05:02.943Z,16.89
2018-04-13T05:06:12.660Z,16.94
2018-04-13T05:07:22.382Z,16.98
2018-04-13T05:08:32.088Z,16.95
2018-04-13T05:09:42.074Z,16.95
2018-04-13T05:10:52.036Z,17.01
2018-04-13T05:12:02.089Z,17.01
2018-04-13T05:13:12.107Z,16.99
2018-04-13T05:14:22.084Z,16.98
2018-04-13T05:15:32.063Z,17.01
2018-04-13T05:16:42.039Z,16.95
2018-04-13T05:17:51.507Z,16.97
2018-04-13T05:19:01.471Z,16.98
2018-04-13T05:20:11.584Z,17.12
2018-04-13T05:21:21.308Z,17.05
2018-04-13T05:22:31.102Z,17.01
2018-04-13T05:23:41.245Z,17.05
2018-04-13T05:24:51.222Z,17.1
2018-04-13T05:26:00.678Z,17.07
2018-04-13T05:27:10.666Z,16.99
2018-04-13T05:28:20.391Z,17.01
2018-04-13T05:29:30.395Z,17.07
2018-04-13T05:30:40.122Z,17.05
2018-04-13T05:31:50.093Z,17.07
2018-04-13T05:33:00.087Z,17.07
2018-04-13T05:34:10.068Z,17.19
2018-04-13T05:35:20.380Z,17.02
2018-04-13T05:36:30.215Z,17.13
2018-04-13T05:37:40.212Z,17.1
2018-04-13T05:38:49.988Z,17.13
2018-04-13T05:39:59.966Z,17.17
2018-04-13T05:41:09.688Z,17.09
2018-04-13T05:42:19.411Z,17.2
2018-04-13T05:43:29.120Z,17.19
2018-04-13T05:44:39.102Z,17.22
2018-04-13T05:45:49.071Z,17.2
2018-04-13T05:46:58.788Z,17.2
2018-04-13T05:48:08.771Z,17.23
2018-04-13T05:49:18.788Z,17.32
2018-04-13T05:50:28.783Z,17.27
2018-04-13T05:51:38.506Z,17.28
2018-04-13T05:52:48.508Z,17.27
2018-04-13T05:53:58.496Z,17.24
2018-04-13T05:55:08.448Z,17.24
2018-04-13T05:56:18.429Z,17.28
2018-04-13T05:57:28.389Z,17.34
2018-04-13T05:58:38.133Z,17.28
2018-04-13T05:59:48.105Z,17.32
2018-04-13T06:00:58.076Z,17.27
2018-04-13T06:02:08.103Z,17.38
2018-04-13T06:03:18.075Z,17.32
2018-04-13T06:04:28.042Z,17.34
2018-04-13T06:05:38.025Z,17.34
2018-04-13T06:06:48.049Z,17.34
2018-04-13T06:07:57.772Z,17.31
2018-04-13T06:09:07.641Z,17.34
2018-04-13T06:10:17.140Z,17.31
2018-04-13T06:11:26.604Z,17.35
2018-04-13T06:12:36.070Z,17.35
2018-04-13T06:13:46.053Z,17.37
2018-04-13T06:14:55.512Z,17.39
2018-04-13T06:16:05.239Z,17.44
2018-04-13T06:17:15.211Z,17.39
2018-04-13T06:18:25.205Z,17.46
2018-04-13T06:19:34.927Z,17.37
2018-04-13T06:20:44.915Z,17.41
2018-04-13T06:21:54.914Z,17.41
2018-04-13T06:23:04.147Z,17.37
2018-04-13T06:24:14.248Z,17.27
2018-04-13T06:25:24.438Z,17.37
2018-04-13T06:26:34.435Z,17.35
2018-04-13T06:27:44.415Z,17.31
2018-04-13T06:28:54.375Z,17.27
2018-04-13T06:30:04.356Z,17.16
2018-04-13T06:31:14.340Z,17.13
2018-04-13T06:32:24.071Z,17.09
2018-04-13T06:33:33.789Z,17.16
2018-04-13T06:34:43.765Z,17.13
2018-04-13T06:35:53.744Z,17.07
2018-04-13T06:37:03.715Z,16.98
2018-04-13T06:38:13.709Z,16.89
2018-04-13T06:39:23.436Z,16.89
2018-04-13T06:40:33.447Z,16.74
2018-04-13T06:41:42.904Z,16.73
2018-04-13T06:42:52.884Z,16.62
2018-04-13T06:44:02.893Z,16.5
2018-04-13T06:45:12.619Z,16.47
2018-04-13T06:46:22.341Z,16.4
2018-04-13T06:47:31.805Z,16.44
2018-04-13T06:48:41.866Z,16.32
2018-04-13T06:49:51.976Z,16.36
2018-04-13T06:51:01.984Z,16.31
2018-04-13T06:52:11.791Z,16.29
2018-04-13T06:53:21.782Z,16.29
2018-04-13T06:54:31.764Z,16.26
2018-04-13T06:55:41.760Z,16.24
2018-04-13T06:56:51.490Z,16.31
2018-04-13T06:58:01.475Z,16.24
2018-04-13T06:59:11.450Z,16.28
2018-04-13T07:00:21.436Z,16.18
2018-04-13T07:01:31.154Z,16.08
2018-04-13T07:02:41.142Z,16.03
2018-04-13T07:03:50.610Z,16.02
2018-04-13T07:05:00.342Z,15.92
2018-04-13T07:06:10.321Z,15.99
2018-04-13T07:07:20.315Z,15.96
2018-04-13T07:08:30.403Z,15.99
2018-04-13T07:09:40.144Z,15.92
2018-04-13T07:10:50.112Z,15.87
2018-04-13T07:12:00.091Z,15.91
2018-04-13T07:13:10.075Z,15.85
2018-04-13T07:14:20.061Z,15.98
2018-04-13T07:15:29.846Z,15.96
2018-04-13T07:16:39.079Z,15.96
2018-04-13T07:17:48.540Z,16
2018-04-13T07:18:58.270Z,16.05
2018-04-13T07:20:08.510Z,16
2018-04-13T07:21:18.249Z,16.03
2018-04-13T07:22:27.972Z,16.03
2018-04-13T07:23:37.694Z,16
2018-04-13T07:24:47.408Z,15.94
2018-04-13T07:25:57.428Z,15.99
2018-04-13T07:27:07.391Z,15.84
2018-04-13T07:28:17.101Z,15.88
2018-04-13T07:29:27.089Z,15.87
2018-04-13T07:30:37.074Z,15.75
2018-04-13T07:31:47.964Z,15.83
2018-04-13T07:32:58.447Z,15.76
2018-04-13T07:34:07.921Z,15.72
2018-04-13T07:35:19.012Z,15.75
2018-04-13T07:36:29.091Z,15.76
2018-04-13T07:37:39.058Z,15.73
2018-04-13T07:38:49.045Z,15.62
2018-04-13T07:39:59.021Z,15.65
2018-04-13T07:41:10.145Z,15.59
2018-04-13T07:42:19.942Z,15.59
2018-04-13T07:43:29.915Z,15.51
2018-04-13T07:44:39.653Z,15.51
2018-04-13T07:45:49.378Z,15.37
2018-04-13T07:47:00.064Z,15.32
2018-04-13T07:48:10.111Z,15.36
2018-04-13T07:49:19.831Z,15.29
2018-04-13T07:50:30.376Z,15.17
2018-04-13T07:51:41.372Z,15.25
2018-04-13T07:52:51.720Z,15.19
2018-04-13T07:54:01.718Z,15.14
2018-04-13T07:55:11.687Z,15.14
2018-04-13T07:56:21.408Z,15.08
2018-04-13T07:57:31.391Z,14.99
2018-04-13T07:58:41.375Z,15.04
2018-04-13T07:59:51.667Z,15.04
2018-04-13T08:01:02.330Z,15.07
2018-04-13T08:02:12.474Z,14.94
2018-04-13T08:03:22.482Z,14.97
2018-04-13T08:04:32.223Z,15.02
2018-04-13T08:05:42.475Z,14.96
2018-04-13T08:06:52.537Z,15.05
2018-04-13T08:08:02.786Z,15.11
2018-04-13T08:09:13.107Z,15.08
2018-04-13T08:10:23.229Z,15.11
2018-04-13T08:11:33.234Z,15.08
2018-04-13T08:12:43.614Z,15.14
2018-04-13T08:13:53.615Z,15.14
2018-04-13T08:15:03.713Z,15.12
2018-04-13T08:16:13.936Z,15.12
2018-04-13T08:17:23.666Z,15.17
2018-04-13T08:18:33.659Z,15.1
2018-04-13T08:19:43.399Z,15.11
2018-04-13T08:20:53.443Z,15.18
2018-04-13T08:22:03.181Z,15.19
2018-04-13T08:23:12.895Z,15.29
2018-04-13T08:24:22.963Z,15.39
2018-04-13T08:25:32.457Z,15.41
2018-04-13T08:26:42.455Z,15.37
2018-04-13T08:27:52.434Z,15.44
2018-04-13T08:29:02.542Z,15.52
2018-04-13T08:30:12.531Z,15.44
2018-04-13T08:31:22.646Z,15.57
2018-04-13T08:32:32.368Z,15.67
2018-04-13T08:33:42.169Z,15.75
2018-04-13T08:34:52.250Z,15.78
2018-04-13T08:36:02.273Z,15.81
2018-04-13T08:37:12.287Z,15.85
2018-04-13T08:38:22.269Z,15.92
2018-04-13T08:39:32.260Z,16.02
2018-04-13T08:40:42.405Z,16
2018-04-13T08:41:52.153Z,16.12
